Flight Track Log - Related Links

Times and Time Zones

All times are in EDT time to prevent confusion due to time zone crossing. See the AWE1425 flight status page for this flight to view local times or setup timezone preferences in your user account.

Time Position Orientation Groundspeed Altitude Reporting Facility
EDT Latitude Longitude Course Direction KTS MPH feet Rate Location/Type
Wed 02:11:08 PM 32.3667 -64.6833 101° East 277 319 2,500  Level New York Oceanic (ODAPS)
Wed 02:13:00 PM 32.4568 -65.0448 290° West  Level FlightAware Approximate
Wed 02:14:00 PM 32.4930 -65.1721 287° West  Level FlightAware Approximate
Wed 02:14:07 PM 32.3167 -64.3833 285° West 313 360 2,500  Level New York Oceanic (ODAPS)
Wed 02:15:00 PM 32.5253 -65.3010 287° West  Level FlightAware Approximate
Wed 02:15:15 PM 32.3167 -64.3833 285° West 355 409 2,500  Level New York Oceanic (ODAPS)
Wed 02:16:00 PM 32.5551 -65.4307 285° West  Level FlightAware Approximate
Wed 02:16:06 PM 32.3167 -64.3833 285° West 355 409 15,700  Level New York Oceanic (ODAPS)
Wed 02:17:00 PM 32.4071 -64.7931 285° West 277 319 2,500 -6,947 Descending FlightAware Transoceanic
Wed 02:18:00 PM 32.4370 -64.9298 284° West 277 319 2,500  Level FlightAware Transoceanic
Wed 02:19:00 PM 32.4234 -64.9268 287° West  Level FlightAware Approximate
Wed 02:20:00 PM 32.4667 -65.0667 287° West 313 360 2,500  Level FlightAware Transoceanic
Wed 02:21:00 PM 32.5235 -65.2896 287° West 355 409 2,500 6,600 Level FlightAware Transoceanic
Wed 02:22:00 PM 32.5517 -65.4012 287° West 355 409 15,700 14,224 Climbing FlightAware Transoceanic
Wed 02:22:56 PM 32.4667 -65.0667 287° West 417 480 30,000  Climbing New York Oceanic (ODAPS)
Wed 02:23:00 PM 32.5799 -65.5129 287° West 355 409 15,700 -13,406 Descending FlightAware Transoceanic
Wed 02:24:00 PM 32.6080 -65.6246 287° West 355 409 15,700  Level FlightAware Transoceanic
Wed 02:25:00 PM 32.6359 -65.7364 287° West 355 409 15,700  Level FlightAware Transoceanic
Wed 02:26:00 PM 32.6638 -65.8483 286° West 355 409 15,700  Level FlightAware Transoceanic
Wed 02:27:00 PM 32.6916 -65.9602 286° West 355 409 15,700 9,588 Level FlightAware Transoceanic
Wed 02:27:42 PM 32.4667 -65.0667 287° West 417 480 32,000  Climbing New York Oceanic (ODAPS)
Wed 02:28:00 PM 32.7192 -66.0722 286° West 355 409 15,700 -1,538 Descending FlightAware Transoceanic
Wed 02:29:00 PM 32.6976 -65.9845 286° West 417 480 30,000 7,150 Climbing FlightAware Transoceanic
Wed 02:30:00 PM 32.7300 -66.1160 286° West 417 480 30,000  Level FlightAware Transoceanic
Wed 02:31:00 PM 32.7623 -66.2476 286° West 417 480 30,000  Level FlightAware Transoceanic
Wed 02:32:00 PM 32.7945 -66.3793 286° West 417 480 30,000  Level FlightAware Transoceanic
Wed 02:33:00 PM 32.8265 -66.5111 286° West 417 480 30,000 1,000 Level FlightAware Transoceanic
Wed 02:34:00 PM 32.8584 -66.6430 286° West 417 480 32,000 1,000 Climbing FlightAware Transoceanic
Wed 02:35:00 PM 32.8902 -66.7750 286° West 417 480 32,000  Level FlightAware Transoceanic
Wed 02:36:00 PM 32.9218 -66.9071 286° West 417 480 32,000  Level FlightAware Transoceanic
Wed 02:37:00 PM 32.9533 -67.0393 286° West 417 480 32,000  Level FlightAware Transoceanic
Wed 02:38:00 PM 32.9846 -67.1715 286° West 417 480 32,000  Level FlightAware Transoceanic
Wed 02:39:00 PM 33.0158 -67.3039 286° West 417 480 32,000  Level FlightAware Transoceanic
Wed 02:40:00 PM 33.0468 -67.4363 286° West 417 480 32,000  Level FlightAware Transoceanic
Wed 02:41:00 PM 33.0778 -67.5689 286° West 417 480 32,000  Level FlightAware Transoceanic
Wed 02:42:00 PM 33.1085 -67.7015 285° West 417 480 32,000  Level FlightAware Transoceanic
Wed 02:43:00 PM 33.1391 -67.8343 285° West 417 480 32,000  Level FlightAware Transoceanic
Wed 02:44:00 PM 33.1697 -67.9671 285° West 417 480 32,000  Level FlightAware Transoceanic
Wed 02:44:37 PM 33.2000 -68.1000 323° Northwest 443 510 32,000  Level New York Oceanic (ODAPS)
Wed 02:45:00 PM 33.2000 -68.1000 323° Northwest 417 480 32,000  Level FlightAware Transoceanic
Wed 02:46:00 PM 33.2967 -68.1856 323° Northwest 417 480 32,000  Level FlightAware Transoceanic
Wed 02:47:00 PM 33.3933 -68.2714 323° Northwest 417 480 32,000  Level FlightAware Transoceanic
Wed 02:48:00 PM 33.4899 -68.3575 323° Northwest 417 480 32,000  Level FlightAware Transoceanic
Wed 02:49:00 PM 33.5864 -68.4437 323° Northwest 417 480 32,000  Level FlightAware Transoceanic
Wed 02:50:00 PM 33.6829 -68.5301 323° Northwest 417 480 32,000  Level FlightAware Transoceanic
Wed 02:51:00 PM 33.8916 -68.7179 323° Northwest 443 510 32,000  Level FlightAware Transoceanic
Wed 02:52:00 PM 33.9902 -68.8070 323° Northwest 443 510 32,000  Level FlightAware Transoceanic
Wed 02:53:00 PM 34.0887 -68.8963 323° Northwest 443 510 32,000  Level FlightAware Transoceanic
Wed 02:54:00 PM 34.1871 -68.9858 323° Northwest 443 510 32,000  Level FlightAware Transoceanic
Wed 02:55:00 PM 34.2855 -69.0755 323° Northwest 443 510 32,000  Level FlightAware Transoceanic
Wed 02:56:00 PM 34.3838 -69.1655 323° Northwest 443 510 32,000  Level FlightAware Transoceanic
Wed 02:57:00 PM 34.4820 -69.2556 323° Northwest 443 510 32,000  Level FlightAware Transoceanic
Wed 02:58:00 PM 34.5801 -69.3459 323° Northwest 443 510 32,000  Level FlightAware Transoceanic
Wed 02:59:00 PM 34.6782 -69.4365 323° Northwest 443 510 32,000  Level FlightAware Transoceanic
Wed 03:00:00 PM 34.7763 -69.5273 323° Northwest 443 510 32,000  Level FlightAware Transoceanic
Wed 03:01:00 PM 34.8742 -69.6183 323° Northwest 443 510 32,000  Level FlightAware Transoceanic
Wed 03:02:00 PM 34.9721 -69.7095 323° Northwest 443 510 32,000  Level FlightAware Transoceanic
Wed 03:03:00 PM 35.0699 -69.8009 323° Northwest 443 510 32,000  Level FlightAware Transoceanic
Wed 03:04:00 PM 35.1677 -69.8925 322° Northwest 443 510 32,000  Level FlightAware Transoceanic
Wed 03:05:00 PM 35.2654 -69.9844 322° Northwest 443 510 32,000  Level FlightAware Transoceanic
Wed 03:06:00 PM 35.3630 -70.0765 322° Northwest 443 510 32,000  Level FlightAware Transoceanic
Wed 03:07:00 PM 35.4605 -70.1688 322° Northwest 443 510 32,000  Level FlightAware Transoceanic
Wed 03:08:00 PM 35.5580 -70.2613 322° Northwest 443 510 32,000  Level FlightAware Transoceanic
Wed 03:09:00 PM 35.6554 -70.3541 322° Northwest 443 510 32,000  Level FlightAware Transoceanic
Wed 03:10:00 PM 35.7527 -70.4471 322° Northwest 443 510 32,000  Level FlightAware Transoceanic
Wed 03:11:00 PM 35.8500 -70.5403 322° Northwest 443 510 32,000  Level FlightAware Transoceanic
Wed 03:11:04 PM 35.7667 -70.4500 322° Northwest 417 480 32,000  Level New York Oceanic (ODAPS)
Wed 03:12:00 PM 35.9472 -70.6337 322° Northwest 443 510 32,000  Level FlightAware Transoceanic
Wed 03:13:00 PM 36.0443 -70.7274 322° Northwest 443 510 32,000  Level FlightAware Transoceanic
Wed 03:14:00 PM 36.1413 -70.8213 322° Northwest 443 510 32,000  Level FlightAware Transoceanic
Wed 03:15:00 PM 36.2383 -70.9155 322° Northwest 443 510 32,000  Level FlightAware Transoceanic
Wed 03:16:00 PM 36.3352 -71.0098 322° Northwest 443 510 32,000  Level FlightAware Transoceanic
Wed 03:17:00 PM 36.4004 -71.0672 322° Northwest 417 480 32,000  Level FlightAware Transoceanic
Wed 03:18:00 PM 36.4906 -71.1562 322° Northwest 417 480 32,000  Level FlightAware Transoceanic
Wed 03:19:00 PM 36.5808 -71.2454 322° Northwest 417 480 32,000  Level FlightAware Transoceanic
Wed 03:20:00 PM 36.6710 -71.3348 321° Northwest 417 480 32,000  Level FlightAware Transoceanic
Wed 03:21:00 PM 36.7610 -71.4245 321° Northwest 417 480 32,000  Level FlightAware Transoceanic
Wed 03:25:04 PM 37.1569 -71.8117 358° North 458 527 32,000  Level New York Center
Wed 03:26:04 PM 37.2581 -71.9069 323° Northwest 446 513 32,000  Level New York Center
Wed 03:27:05 PM 37.3661 -71.9636 337° Northwest 435 501 32,000  Level New York Center
Wed 03:28:04 PM 37.4764 -71.9758 355° North 413 475 32,000  Level New York Center
Wed 03:29:04 PM 37.5994 -71.9883 355° North 420 483 32,000  Level New York Center
Wed 03:30:00 PM 37.6136 -71.9642 358° North  Level FlightAware Approximate
Wed 03:30:05 PM 37.6989 -72.0558 332° Northwest 403 464 32,000  Level New York Center
Wed 03:31:06 PM 37.7725 -72.1858 306° West 419 482 32,000 -50 Level New York Center
Wed 03:32:06 PM 37.8394 -72.3214 302° West 431 496 31,900 -50 Descending New York Center
Wed 03:33:07 PM 37.9067 -72.4439 305° West 446 513 31,900 50 Level New York Center
Wed 03:34:05 PM 37.9753 -72.5903 301° West 455 524 32,000 51 Climbing New York Center
Wed 03:35:05 PM 38.0381 -72.7025 305° West 460 529 32,000  Level New York Center
Wed 03:36:06 PM 38.1047 -72.8364 302° West 455 524 32,000  Level New York Center
Wed 03:37:07 PM 38.1731 -72.9678 304° West 455 524 32,000 -1,059 Level New York Center
Wed 03:38:05 PM 38.2394 -73.0994 303° West 455 524 29,900 -2,542 Descending New York Center
Wed 03:39:05 PM 38.3078 -73.2233 305° West 448 516 27,000 -2,727 Descending New York Center
Wed 03:40:06 PM 38.3697 -73.3525 301° West 437 503 24,400 -2,529 Descending New York Center
Wed 03:41:06 PM 38.4336 -73.4714 304° West 425 489 21,900 -2,441 Descending New York Center
Wed 03:42:04 PM 38.4936 -73.5853 304° West 406 467 19,600 -1,752 Descending New York Center
Wed 03:44:28 PM 38.6317 -73.8642 302° West 378 435 16,000 -1,064 Descending Washington Center
Wed 03:45:27 PM 38.6875 -73.9772 302° West 378 435 16,000  Level Washington Center
Wed 03:46:27 PM 38.7433 -74.0878 303° West 378 435 16,000 -198 Level Washington Center
Wed 03:47:28 PM 38.7989 -74.1986 303° West 378 435 15,600 -689 Descending Washington Center
Wed 03:48:29 PM 38.8542 -74.3094 303° West 378 435 14,600 -756 Descending Washington Center
Wed 03:49:27 PM 38.9075 -74.4181 302° West 378 435 14,100 -305 Descending Washington Center
Wed 03:50:27 PM 38.9606 -74.5264 302° West 378 435 14,000 -50 Descending Washington Center
Wed 03:51:28 PM 39.0178 -74.6378 303° West 378 435 14,000 -605 Level Washington Center
Wed 03:52:26 PM 39.0686 -74.7469 301° West 368 423 12,800 -1,311 Descending Washington Center
Wed 03:53:27 PM 39.1422 -74.8208 322° Northwest 361 415 11,400 -1,180 Descending Washington Center
Wed 03:54:28 PM 39.2300 -74.8547 343° North 334 384 10,400 -721 Descending Washington Center
Wed 03:56:55 PM 39.4167 -74.9167 346° North 287 330 8,900 -580 Descending Philadelphia TRACON
Wed 03:57:55 PM 39.5000 -74.9500 343° North 285 328 8,400 -750 Descending Philadelphia TRACON
Wed 03:58:55 PM 39.5500 -75.0167 314° West 300 345 7,400 -750 Descending Philadelphia TRACON
Wed 03:59:55 PM 39.5500 -75.1333 270° West 287 330 6,900 -250 Descending Philadelphia TRACON
Wed 04:00:55 PM 39.5667 -75.2333 282° West 284 327 6,900 -300 Level Philadelphia TRACON
Wed 04:01:55 PM 39.5833 -75.3167 285° West 246 283 6,300 -500 Descending Philadelphia TRACON
Wed 04:02:55 PM 39.6500 -75.3333 349° North 244 281 5,900 -350 Descending Philadelphia TRACON
Wed 04:03:55 PM 39.7000 -75.3833 322° Northwest 231 266 5,600 -600 Descending Philadelphia TRACON
Wed 04:04:55 PM 39.7167 -75.4667 285° West 231 266 4,700 -800 Descending Philadelphia TRACON
Wed 04:05:55 PM 39.7333 -75.5333 288° West 200 230 4,000 -400 Descending Philadelphia TRACON
Wed 04:06:55 PM 39.7667 -75.5500 339° North 179 206 3,900 -350 Descending Philadelphia TRACON
Wed 04:07:55 PM 39.8167 -75.5167 27° Northeast 171 197 3,300 -500 Descending Philadelphia TRACON
Wed 04:08:55 PM 39.8167 -75.4500 90° East 162 186 2,900 -645 Descending Philadelphia TRACON
Wed 04:09:56 PM 39.8333 -75.4000 67° East 160 184 2,000 -885 Descending Philadelphia TRACON

Login

Don't have an account? Register now (free) for customized features, flight alerts, and more!